createdAt,value
2023-03-11T00:00:56.005Z,2.10
2023-03-11T00:03:24.428Z,2.10
2023-03-11T00:05:53.494Z,2.00
2023-03-11T00:08:25.097Z,2.00
2023-03-11T00:10:55.989Z,2.00
2023-03-11T00:13:23.976Z,1.90
2023-03-11T00:15:55.844Z,1.90
2023-03-11T00:18:27.064Z,1.90
2023-03-11T00:20:56.174Z,1.90
2023-03-11T00:23:23.857Z,1.80
2023-03-11T00:25:50.962Z,1.80
2023-03-11T00:28:18.069Z,1.80
2023-03-11T00:30:46.627Z,1.90
2023-03-11T00:33:15.525Z,1.90
2023-03-11T00:35:43.646Z,1.90
2023-03-11T00:38:15.397Z,1.90
2023-03-11T00:40:42.749Z,1.90
2023-03-11T00:43:11.018Z,2.00
2023-03-11T00:45:38.469Z,2.00
2023-03-11T00:48:06.181Z,2.00
2023-03-11T00:50:36.924Z,2.10
2023-03-11T00:53:04.986Z,2.10
2023-03-11T00:55:34.727Z,2.00
2023-03-11T00:58:04.264Z,2.00
2023-03-11T01:00:32.095Z,2.00
2023-03-11T01:03:00.533Z,2.00
2023-03-11T01:05:30.546Z,1.90
2023-03-11T01:07:58.228Z,1.90
2023-03-11T01:10:28.636Z,1.90
2023-03-11T01:12:56.177Z,1.90
2023-03-11T01:15:28.289Z,1.80
2023-03-11T01:17:55.373Z,1.80
2023-03-11T01:20:22.829Z,1.70
2023-03-11T01:22:50.228Z,1.70
2023-03-11T01:25:19.192Z,1.70
2023-03-11T01:27:46.905Z,1.60
2023-03-11T01:30:22.503Z,1.60
2023-03-11T01:32:50.468Z,1.60
2023-03-11T01:35:19.860Z,1.60
2023-03-11T01:37:47.400Z,1.70
2023-03-11T01:40:21.788Z,1.70
2023-03-11T01:42:48.734Z,1.70
2023-03-11T01:45:33.763Z,1.70
2023-03-11T01:48:00.809Z,1.60
2023-03-11T01:50:34.824Z,1.60
2023-03-11T01:53:03.038Z,1.50
2023-03-11T01:55:31.496Z,1.50
2023-03-11T01:58:02.916Z,1.40
2023-03-11T02:00:29.992Z,1.40
2023-03-11T02:02:59.991Z,1.40
2023-03-11T02:05:27.279Z,1.40
2023-03-11T02:07:55.707Z,1.40
2023-03-11T02:10:22.937Z,1.30
2023-03-11T02:12:50.877Z,1.20
2023-03-11T02:15:17.947Z,1.20
2023-03-11T02:17:45.190Z,1.00
2023-03-11T02:20:29.942Z,0.90
2023-03-11T02:22:57.715Z,0.80
2023-03-11T02:25:40.518Z,0.70
2023-03-11T02:28:11.617Z,0.70
2023-03-11T02:30:42.087Z,0.60
2023-03-11T02:33:09.807Z,0.50
2023-03-11T02:35:37.255Z,0.40
2023-03-11T02:38:04.360Z,0.40
2023-03-11T02:40:44.110Z,0.40
2023-03-11T02:43:15.067Z,0.40
2023-03-11T02:45:46.155Z,0.30
2023-03-11T02:48:14.551Z,0.20
2023-03-11T02:50:41.976Z,0.20
2023-03-11T02:53:09.201Z,0.20
2023-03-11T02:55:36.409Z,0.20
2023-03-11T02:58:03.414Z,0.20
2023-03-11T03:00:30.494Z,0.20
2023-03-11T03:02:57.579Z,0.20
2023-03-11T03:05:24.570Z,0.20
2023-03-11T03:07:52.202Z,0.20
2023-03-11T03:10:21.426Z,0.30
2023-03-11T03:12:48.570Z,0.20
2023-03-11T03:15:16.225Z,0.30
2023-03-11T03:17:43.350Z,0.30
2023-03-11T03:20:12.231Z,0.20
2023-03-11T03:22:41.338Z,0.20
2023-03-11T03:25:09.284Z,0.10
2023-03-11T03:27:36.814Z,0.20
2023-03-11T03:30:05.017Z,0.20
2023-03-11T03:32:32.101Z,0.20
2023-03-11T03:34:59.568Z,0.20
2023-03-11T03:37:27.877Z,0.20
2023-03-11T03:39:55.114Z,0.20
2023-03-11T03:42:22.606Z,0.20
2023-03-11T03:44:49.669Z,0.20
2023-03-11T03:47:17.662Z,0.20
2023-03-11T03:49:44.747Z,0.20
2023-03-11T03:52:12.057Z,0.30
2023-03-11T03:54:39.222Z,0.30
2023-03-11T03:57:06.350Z,0.40
2023-03-11T03:59:33.339Z,0.40
2023-03-11T04:02:00.627Z,0.50
2023-03-11T04:04:27.796Z,0.50
2023-03-11T04:06:54.789Z,0.50
2023-03-11T04:09:21.918Z,0.50
2023-03-11T04:11:48.927Z,0.50
2023-03-11T04:14:16.114Z,0.50
2023-03-11T04:16:43.533Z,0.50
2023-03-11T04:19:10.828Z,0.50
2023-03-11T04:21:37.818Z,0.40
2023-03-11T04:24:06.032Z,0.40
2023-03-11T04:26:32.959Z,0.40
2023-03-11T04:29:00.006Z,0.40
2023-03-11T04:31:27.188Z,0.40
2023-03-11T04:33:54.794Z,0.40
2023-03-11T04:36:21.791Z,0.40
2023-03-11T04:38:48.843Z,0.40
2023-03-11T04:41:15.787Z,0.30
2023-03-11T04:43:42.803Z,0.40
2023-03-11T04:46:09.889Z,0.30
2023-03-11T04:48:37.346Z,0.30
2023-03-11T04:51:04.840Z,0.30
2023-03-11T04:53:35.759Z,0.20
2023-03-11T04:56:03.228Z,0.20
2023-03-11T04:58:30.259Z,0.20
2023-03-11T05:00:57.397Z,0.20
2023-03-11T05:03:24.920Z,0.20
2023-03-11T05:05:55.029Z,0.20
2023-03-11T05:08:22.210Z,0.20
2023-03-11T05:10:49.648Z,0.20
2023-03-11T05:13:16.849Z,0.20
2023-03-11T05:15:46.294Z,0.10
2023-03-11T05:18:14.000Z,0.00
2023-03-11T05:20:40.999Z,0.00
2023-03-11T05:23:07.988Z,-0.10
2023-03-11T05:25:35.739Z,-0.10
2023-03-11T05:28:02.776Z,-0.10
2023-03-11T05:30:29.859Z,-0.10
2023-03-11T05:32:56.998Z,-0.20
2023-03-11T05:35:24.136Z,-0.10
2023-03-11T05:37:51.360Z,-0.10
2023-03-11T05:40:18.813Z,-0.20
2023-03-11T05:42:45.886Z,-0.20
2023-03-11T05:45:13.311Z,-0.10
2023-03-11T05:47:42.376Z,-0.10
2023-03-11T05:50:11.883Z,-0.10
2023-03-11T05:52:38.929Z,0.00
2023-03-11T05:55:06.351Z,0.00
2023-03-11T05:57:33.335Z,0.00
2023-03-11T06:00:01.305Z,-0.10
2023-03-11T06:02:28.353Z,0.00
2023-03-11T06:04:56.520Z,0.00
2023-03-11T06:07:23.628Z,0.10
2023-03-11T06:09:50.946Z,0.20
2023-03-11T06:12:17.990Z,0.30
2023-03-11T06:14:44.976Z,0.40
2023-03-11T06:17:11.945Z,0.50
2023-03-11T06:19:38.926Z,0.70
2023-03-11T06:22:06.494Z,1.00
2023-03-11T06:24:33.640Z,1.60
2023-03-11T06:27:00.676Z,2.80
2023-03-11T06:29:29.104Z,3.90
2023-03-11T06:31:56.453Z,5.80
2023-03-11T06:34:24.018Z,7.10
2023-03-11T06:36:50.972Z,8.10
2023-03-11T06:39:18.009Z,8.70
2023-03-11T06:41:44.922Z,9.50
2023-03-11T06:44:12.428Z,10.50
2023-03-11T06:46:39.449Z,10.80
2023-03-11T06:49:07.443Z,9.70
2023-03-11T06:51:34.848Z,8.40
2023-03-11T06:54:03.020Z,6.70
2023-03-11T06:56:29.941Z,5.50
2023-03-11T06:58:56.956Z,4.60
2023-03-11T07:01:25.559Z,4.10
2023-03-11T07:03:53.175Z,3.60
2023-03-11T07:06:24.455Z,3.10
2023-03-11T07:08:52.838Z,2.80
2023-03-11T07:11:28.358Z,2.50
2023-03-11T07:13:55.884Z,2.50
2023-03-11T07:16:25.882Z,2.70
2023-03-11T07:18:54.909Z,2.90
2023-03-11T07:21:23.570Z,3.20
2023-03-11T07:23:58.983Z,3.30
2023-03-11T07:26:28.010Z,3.60
2023-03-11T07:28:56.088Z,3.90
2023-03-11T07:31:27.785Z,4.40
2023-03-11T07:33:54.864Z,4.70
2023-03-11T07:36:24.318Z,4.30
2023-03-11T07:38:59.896Z,3.90
2023-03-11T07:41:36.702Z,3.50
2023-03-11T07:44:04.755Z,3.20
2023-03-11T07:46:32.408Z,2.90
2023-03-11T07:49:00.638Z,2.60
2023-03-11T07:51:30.200Z,2.50
2023-03-11T07:53:58.866Z,2.20
2023-03-11T07:56:28.181Z,2.20
2023-03-11T07:58:55.238Z,2.10
2023-03-11T08:01:24.475Z,2.30
2023-03-11T08:03:57.184Z,2.40
2023-03-11T08:06:31.495Z,2.50
2023-03-11T08:09:01.834Z,2.60
2023-03-11T08:11:29.963Z,2.70
2023-03-11T08:13:58.024Z,2.70
2023-03-11T08:16:46.207Z,2.70
2023-03-11T08:19:13.545Z,2.90
2023-03-11T08:21:40.914Z,3.10
2023-03-11T08:24:12.631Z,3.40
2023-03-11T08:26:40.096Z,3.60
2023-03-11T08:29:07.204Z,4.00
2023-03-11T08:31:38.322Z,4.10
2023-03-11T08:34:09.023Z,4.30
2023-03-11T08:36:36.766Z,4.20
2023-03-11T08:39:05.979Z,4.20
2023-03-11T08:41:33.423Z,4.30
2023-03-11T08:44:00.808Z,4.40
2023-03-11T08:46:36.816Z,4.50
2023-03-11T08:49:04.915Z,4.50
2023-03-11T08:51:34.471Z,4.50
2023-03-11T08:54:02.159Z,4.40
2023-03-11T08:56:29.419Z,4.30
2023-03-11T08:58:56.832Z,4.20
2023-03-11T09:01:23.970Z,3.80
2023-03-11T09:03:51.045Z,3.60
2023-03-11T09:06:20.064Z,3.50
2023-03-11T09:08:48.670Z,3.60
2023-03-11T09:11:16.742Z,3.60
2023-03-11T09:13:44.196Z,3.50
2023-03-11T09:16:20.891Z,3.50
2023-03-11T09:18:48.449Z,3.60
2023-03-11T09:21:16.146Z,3.60
2023-03-11T09:23:44.443Z,3.80
2023-03-11T09:26:12.205Z,4.00
2023-03-11T09:28:39.732Z,4.20
2023-03-11T09:31:06.920Z,4.30
2023-03-11T09:33:39.296Z,4.50
2023-03-11T09:36:07.256Z,4.90
2023-03-11T09:38:34.225Z,5.20
2023-03-11T09:41:08.716Z,5.70
2023-03-11T09:44:02.700Z,6.20
2023-03-11T09:46:31.701Z,6.50
2023-03-11T09:49:23.327Z,6.70
2023-03-11T09:52:09.270Z,7.30
2023-03-11T09:54:52.572Z,7.50
2023-03-11T09:57:40.008Z,8.00
2023-03-11T10:00:08.466Z,8.10
2023-03-11T10:02:37.342Z,7.90
2023-03-11T10:05:20.372Z,8.10
2023-03-11T10:08:11.841Z,8.20
2023-03-11T10:10:51.889Z,8.10
2023-03-11T10:13:33.324Z,8.00
2023-03-11T10:16:06.343Z,8.20
2023-03-11T10:18:39.874Z,8.70
2023-03-11T10:21:33.347Z,9.30
2023-03-11T10:24:24.636Z,9.60
2023-03-11T10:27:17.351Z,9.20
2023-03-11T10:29:57.534Z,8.60
2023-03-11T10:32:46.111Z,8.10
2023-03-11T10:35:23.041Z,7.80
2023-03-11T10:37:57.804Z,7.60
2023-03-11T10:40:32.041Z,7.50
2023-03-11T10:43:02.000Z,7.20
2023-03-11T10:45:41.491Z,6.80
2023-03-11T10:48:10.979Z,6.60
2023-03-11T10:50:57.171Z,6.30
2023-03-11T10:53:24.366Z,6.10
2023-03-11T10:55:56.979Z,6.00
2023-03-11T10:58:31.186Z,6.00
2023-03-11T11:01:16.019Z,5.80
2023-03-11T11:03:45.851Z,5.60
2023-03-11T11:06:36.448Z,5.40
2023-03-11T11:09:16.920Z,5.20
2023-03-11T11:12:12.301Z,5.00
2023-03-11T11:14:50.800Z,4.80
2023-03-11T11:17:47.652Z,4.90
2023-03-11T11:20:19.600Z,5.10
2023-03-11T11:22:59.488Z,5.30
2023-03-11T11:25:34.447Z,5.50
2023-03-11T11:28:21.413Z,5.80
2023-03-11T11:30:58.375Z,6.10
2023-03-11T11:33:40.045Z,6.30
2023-03-11T11:36:14.872Z,6.30
2023-03-11T11:38:42.373Z,6.30
2023-03-11T11:41:15.277Z,6.20
2023-03-11T11:43:50.231Z,6.30
2023-03-11T11:46:45.444Z,6.20
2023-03-11T11:49:42.039Z,6.00
2023-03-11T11:52:25.214Z,6.00
2023-03-11T11:55:11.795Z,6.00
2023-03-11T11:57:44.016Z,6.00
2023-03-11T12:04:42.380Z,5.80
2023-03-11T12:07:31.668Z,5.60
2023-03-11T12:10:19.826Z,5.50
2023-03-11T12:17:05.262Z,5.10
2023-03-11T12:19:47.616Z,5.10
2023-03-11T12:22:52.431Z,5.10
2023-03-11T12:25:56.659Z,5.10
2023-03-11T12:28:47.738Z,5.10
2023-03-11T12:31:15.231Z,5.10
2023-03-11T12:34:03.385Z,5.10
2023-03-11T12:36:37.811Z,5.10
2023-03-11T12:39:19.746Z,5.10
2023-03-11T12:45:49.388Z,4.90
2023-03-11T12:48:41.495Z,4.80
2023-03-11T12:51:34.594Z,4.80
2023-03-11T12:54:31.482Z,4.80
2023-03-11T12:57:00.397Z,4.70
2023-03-11T12:59:56.224Z,4.70
2023-03-11T13:02:47.878Z,4.60
2023-03-11T13:05:59.986Z,4.60
2023-03-11T13:08:46.105Z,4.60
2023-03-11T13:11:32.081Z,4.70
2023-03-11T13:14:37.564Z,4.80
2023-03-11T13:17:25.802Z,5.10
2023-03-11T13:19:55.349Z,5.30
2023-03-11T13:22:41.020Z,5.30
2023-03-11T13:25:33.561Z,5.40
2023-03-11T13:28:47.568Z,5.40
2023-03-11T13:31:20.530Z,5.50
2023-03-11T13:34:04.832Z,5.50
2023-03-11T13:36:54.734Z,5.50
2023-03-11T13:39:55.237Z,5.60
2023-03-11T13:42:42.312Z,5.80
2023-03-11T13:45:37.501Z,5.90
2023-03-11T13:48:40.705Z,6.00
2023-03-11T13:51:17.517Z,6.00
2023-03-11T13:54:13.223Z,5.80
2023-03-11T13:56:47.001Z,5.60
2023-03-11T13:59:32.955Z,5.50
2023-03-11T14:02:04.851Z,5.30
2023-03-11T14:04:37.840Z,5.10
2023-03-11T14:07:23.556Z,5.00
2023-03-11T14:09:50.703Z,4.90
2023-03-11T14:12:19.168Z,4.90
2023-03-11T14:14:54.804Z,5.00
2023-03-11T14:17:22.354Z,5.10
2023-03-11T14:20:22.544Z,5.10
2023-03-11T14:22:53.043Z,5.30
2023-03-11T14:25:27.442Z,5.40
2023-03-11T14:28:01.539Z,5.50
2023-03-11T14:30:33.759Z,5.50
2023-03-11T14:33:06.042Z,5.50
2023-03-11T14:35:34.309Z,5.50
2023-03-11T14:38:01.540Z,5.30
2023-03-11T14:40:34.190Z,5.30
2023-03-11T14:43:04.744Z,5.20
2023-03-11T14:45:40.335Z,5.20
2023-03-11T14:48:19.628Z,5.10
2023-03-11T14:50:49.595Z,5.10
2023-03-11T14:53:19.831Z,5.10
2023-03-11T14:55:54.825Z,5.00
2023-03-11T14:58:34.948Z,4.90
2023-03-11T15:01:11.050Z,4.80
2023-03-11T15:03:48.298Z,4.80
2023-03-11T15:06:20.014Z,4.70
2023-03-11T15:08:52.007Z,4.60
2023-03-11T15:11:22.256Z,4.50
2023-03-11T15:13:51.306Z,4.40
2023-03-11T15:16:36.306Z,4.30
2023-03-11T15:19:29.419Z,4.30
2023-03-11T15:22:06.881Z,4.30
2023-03-11T15:24:34.851Z,4.40
2023-03-11T15:27:07.880Z,4.50
2023-03-11T15:29:36.272Z,4.60
2023-03-11T15:32:29.176Z,4.70
2023-03-11T15:35:08.611Z,4.70
2023-03-11T15:37:35.968Z,4.70
2023-03-11T15:40:12.341Z,4.60
2023-03-11T15:42:39.532Z,4.60
2023-03-11T15:45:14.464Z,4.60
2023-03-11T15:47:41.966Z,4.50
2023-03-11T15:50:27.294Z,4.40
2023-03-11T15:52:58.722Z,4.30
2023-03-11T15:55:27.149Z,4.20
2023-03-11T15:58:03.481Z,4.10
2023-03-11T16:00:30.571Z,4.00
2023-03-11T16:02:57.603Z,3.90
2023-03-11T16:05:25.888Z,3.80
2023-03-11T16:07:52.918Z,3.80
2023-03-11T16:10:22.980Z,3.80
2023-03-11T16:12:50.056Z,3.70
2023-03-11T16:15:22.340Z,3.70
2023-03-11T16:17:50.450Z,3.70
2023-03-11T16:20:19.258Z,3.70
2023-03-11T16:22:47.820Z,3.70
2023-03-11T16:25:36.857Z,3.70
2023-03-11T16:28:04.719Z,3.60
2023-03-11T16:30:33.847Z,3.60
2023-03-11T16:33:04.000Z,3.60
2023-03-11T16:35:32.148Z,3.50
2023-03-11T16:37:59.290Z,3.30
2023-03-11T16:40:28.435Z,3.20
2023-03-11T16:43:02.041Z,3.10
2023-03-11T16:45:29.251Z,3.00
2023-03-11T16:47:58.272Z,3.00
2023-03-11T16:50:26.968Z,3.00
2023-03-11T16:52:55.710Z,3.00
2023-03-11T16:55:25.567Z,2.90
2023-03-11T16:57:52.623Z,2.90
2023-03-11T17:00:19.878Z,2.90
2023-03-11T17:02:46.975Z,2.80
2023-03-11T17:05:14.082Z,2.70
2023-03-11T17:07:41.258Z,2.70
2023-03-11T17:10:10.169Z,2.60
2023-03-11T17:12:37.781Z,2.50
2023-03-11T17:15:06.921Z,2.40
2023-03-11T17:17:33.912Z,2.40
2023-03-11T17:20:00.889Z,2.30
2023-03-11T17:22:27.956Z,2.20
2023-03-11T17:24:55.127Z,2.10
2023-03-11T17:27:22.164Z,2.10
2023-03-11T17:29:49.205Z,2.00
2023-03-11T17:32:17.646Z,1.90
2023-03-11T17:34:44.869Z,1.90
2023-03-11T17:37:12.235Z,1.80
2023-03-11T17:39:39.232Z,1.70
2023-03-11T17:42:06.324Z,1.60
2023-03-11T17:44:48.560Z,1.40
2023-03-11T17:47:20.053Z,1.30
2023-03-11T17:49:48.844Z,1.20
2023-03-11T17:52:15.863Z,1.00
2023-03-11T17:54:42.810Z,0.90
2023-03-11T17:57:09.894Z,0.80
2023-03-11T17:59:36.965Z,0.70
2023-03-11T18:02:04.054Z,0.70
2023-03-11T18:04:31.107Z,0.60
2023-03-11T18:06:58.084Z,0.50
2023-03-11T18:09:25.143Z,0.50
2023-03-11T18:11:52.222Z,0.50
2023-03-11T18:14:20.424Z,0.50
2023-03-11T18:16:47.426Z,0.50
2023-03-11T18:19:14.414Z,0.40
2023-03-11T18:21:41.445Z,0.40
2023-03-11T18:24:08.589Z,0.40
2023-03-11T18:26:35.543Z,0.30
2023-03-11T18:29:02.754Z,0.30
2023-03-11T18:31:31.022Z,0.30
2023-03-11T18:34:03.625Z,0.30
2023-03-11T18:36:36.809Z,0.30
2023-03-11T18:39:04.897Z,0.30
2023-03-11T18:41:34.387Z,0.20
2023-03-11T18:44:03.012Z,0.10
2023-03-11T18:46:31.855Z,0.10
2023-03-11T18:49:00.329Z,0.00
2023-03-11T18:51:29.129Z,0.00
2023-03-11T18:53:56.353Z,-0.10
2023-03-11T18:56:23.324Z,-0.20
2023-03-11T18:58:51.437Z,-0.20
2023-03-11T19:01:20.399Z,-0.20
2023-03-11T19:03:57.929Z,-0.20
2023-03-11T19:06:26.069Z,-0.30
2023-03-11T19:08:53.589Z,-0.30
2023-03-11T19:11:22.769Z,-0.30
2023-03-11T19:13:50.097Z,-0.40
2023-03-11T19:16:20.316Z,-0.50
2023-03-11T19:18:48.238Z,-0.60
2023-03-11T19:21:17.234Z,-0.60
2023-03-11T19:23:45.954Z,-0.60
2023-03-11T19:26:14.547Z,-0.60
2023-03-11T19:28:42.250Z,-0.70
2023-03-11T19:31:09.695Z,-0.70
2023-03-11T19:33:37.096Z,-0.70
2023-03-11T19:36:07.468Z,-0.80
2023-03-11T19:38:35.538Z,-0.70
2023-03-11T19:41:05.324Z,-0.70
2023-03-11T19:43:33.304Z,-0.60
2023-03-11T19:46:00.792Z,-0.60
2023-03-11T19:48:28.333Z,-0.50
2023-03-11T19:50:55.634Z,-0.30
2023-03-11T19:53:23.983Z,-0.40
2023-03-11T19:55:54.386Z,-0.40
2023-03-11T19:58:22.425Z,-0.30
2023-03-11T20:00:50.384Z,-0.30
2023-03-11T20:03:19.547Z,-0.40
2023-03-11T20:05:48.544Z,-0.40
2023-03-11T20:08:18.457Z,-0.40
2023-03-11T20:10:49.307Z,-0.40
2023-03-11T20:13:18.507Z,-0.50
2023-03-11T20:15:46.354Z,-0.50
2023-03-11T20:18:13.616Z,-0.50
2023-03-11T20:20:43.436Z,-0.50
2023-03-11T20:23:12.394Z,-0.60
2023-03-11T20:25:42.058Z,-0.70
2023-03-11T20:28:09.841Z,-0.80
2023-03-11T20:30:39.059Z,-0.90
2023-03-11T20:33:07.567Z,-0.90
2023-03-11T20:35:35.814Z,-0.90
2023-03-11T20:38:03.738Z,-1.00
2023-03-11T20:40:34.791Z,-1.00
2023-03-11T20:43:02.979Z,-1.10
2023-03-11T20:45:31.228Z,-1.10
2023-03-11T20:48:01.299Z,-1.20
2023-03-11T20:50:29.271Z,-1.20
2023-03-11T20:52:57.147Z,-1.20
2023-03-11T20:55:27.034Z,-1.20
2023-03-11T20:57:55.144Z,-1.30
2023-03-11T21:00:23.072Z,-1.40
2023-03-11T21:02:50.800Z,-1.50
2023-03-11T21:05:18.406Z,-1.50
2023-03-11T21:07:49.653Z,-1.60
2023-03-11T21:10:18.327Z,-1.50
2023-03-11T21:12:46.217Z,-1.60
2023-03-11T21:15:14.035Z,-1.60
2023-03-11T21:17:49.215Z,-1.60
2023-03-11T21:20:17.277Z,-1.70
2023-03-11T21:22:46.666Z,-1.60
2023-03-11T21:25:14.968Z,-1.50
2023-03-11T21:27:42.572Z,-1.60
2023-03-11T21:30:11.864Z,-1.60
2023-03-11T21:32:40.000Z,-1.70
2023-03-11T21:35:07.828Z,-1.70
2023-03-11T21:37:35.018Z,-1.70
2023-03-11T21:40:02.071Z,-1.70
2023-03-11T21:42:30.524Z,-1.70
2023-03-11T21:44:57.987Z,-1.80
2023-03-11T21:47:25.231Z,-1.80
2023-03-11T21:49:52.310Z,-1.80
2023-03-11T21:52:19.599Z,-1.80
2023-03-11T21:54:46.680Z,-1.90
2023-03-11T21:57:14.513Z,-1.90
2023-03-11T21:59:41.796Z,-1.90
2023-03-11T22:02:14.902Z,-2.00
2023-03-11T22:04:43.315Z,-2.00
2023-03-11T22:07:11.214Z,-2.10
2023-03-11T22:09:38.306Z,-2.00
2023-03-11T22:12:05.958Z,-2.00
2023-03-11T22:14:33.195Z,-2.00
2023-03-11T22:17:00.548Z,-1.90
2023-03-11T22:19:27.718Z,-1.80
2023-03-11T22:21:54.801Z,-1.90
2023-03-11T22:24:21.881Z,-2.00
2023-03-11T22:26:48.946Z,-2.00
2023-03-11T22:29:15.933Z,-2.10
2023-03-11T22:31:43.037Z,-2.10
2023-03-11T22:34:10.138Z,-2.20
2023-03-11T22:36:37.138Z,-2.20
2023-03-11T22:39:05.022Z,-2.30
2023-03-11T22:41:32.780Z,-2.30
2023-03-11T22:43:59.910Z,-2.40
2023-03-11T22:46:27.287Z,-2.40
2023-03-11T22:48:54.288Z,-2.40
2023-03-11T22:51:21.553Z,-2.40
2023-03-11T22:53:48.719Z,-2.50
2023-03-11T22:56:17.345Z,-2.50
2023-03-11T22:58:44.958Z,-2.50
2023-03-11T23:01:12.552Z,-2.60
2023-03-11T23:03:40.159Z,-2.60
2023-03-11T23:06:09.388Z,-2.60
2023-03-11T23:08:37.014Z,-2.50
2023-03-11T23:11:07.012Z,-2.20
2023-03-11T23:13:36.092Z,-2.20
2023-03-11T23:16:06.131Z,-2.40
2023-03-11T23:18:34.025Z,-2.30
2023-03-11T23:21:01.216Z,-2.40
2023-03-11T23:23:28.677Z,-2.40
2023-03-11T23:25:55.758Z,-2.40
2023-03-11T23:28:22.801Z,-2.50
2023-03-11T23:30:49.846Z,-2.50
2023-03-11T23:33:16.878Z,-2.50
2023-03-11T23:35:44.030Z,-2.50
2023-03-11T23:38:11.222Z,-2.50
2023-03-11T23:40:40.988Z,-2.60
2023-03-11T23:43:08.046Z,-2.70
2023-03-11T23:45:35.120Z,-2.80
2023-03-11T23:48:02.278Z,-2.80
2023-03-11T23:50:29.344Z,-2.80
2023-03-11T23:52:56.397Z,-2.90
2023-03-11T23:55:23.415Z,-2.90
2023-03-11T23:57:50.549Z,-2.90
